Time;durP1;ratioP1;P1;durP2;ratioP2;P2;SDS_P1;SDS_P2;PMS_P1;PMS_P2;Temp;Humidity;BMP_temperature;BMP_pressure;BME280_temperature;BME280_humidity;BME280_pressure;Samples;Min_cycle;Max_cycle;Signal;HPM_P1;HPM_P2
2022/03/05 00:00:39;;;;;;;16.88;7.15;;;;;;;2.48;76.25;100292.06;4969331;28;20031;-59
2022/03/05 00:03:04;;;;;;;18.40;8.45;;;;;;;2.57;75.45;100305.19;4970239;28;20054;-59
2022/03/05 00:05:30;;;;;;;16.40;8.07;;;;;;;2.55;76.43;100314.81;4969929;28;20053;-59
2022/03/05 00:07:56;;;;;;;16.30;7.78;;;;;;;2.53;76.65;100308.69;4970002;28;20039;-59
2022/03/05 00:10:21;;;;;;;18.65;8.32;;;;;;;2.54;76.73;100310.44;4969205;28;20025;-59
2022/03/05 00:12:48;;;;;;;14.18;8.15;;;;;;;2.43;76.88;100299.03;4969151;28;20085;-59
2022/03/05 00:15:14;;;;;;;16.50;7.63;;;;;;;2.44;76.48;100299.88;4969791;28;20027;-58
2022/03/05 00:17:40;;;;;;;18.92;7.13;;;;;;;2.37;77.21;100314.72;4970195;28;20346;-59
2022/03/05 00:20:06;;;;;;;16.25;7.57;;;;;;;2.29;77.44;100305.94;4969509;28;20027;-58
2022/03/05 00:22:32;;;;;;;14.30;6.82;;;;;;;2.23;77.61;100305.03;4969690;28;20030;-58
2022/03/05 00:24:58;;;;;;;14.98;6.95;;;;;;;2.17;78.07;100315.50;4969068;28;20113;-58
2022/03/05 00:27:23;;;;;;;15.50;7.28;;;;;;;2.11;78.87;100321.59;4969019;28;20022;-59
2022/03/05 00:29:49;;;;;;;17.63;8.00;;;;;;;2.15;78.42;100315.50;4969771;28;20129;-58
2022/03/05 00:32:15;;;;;;;14.75;7.53;;;;;;;2.14;79.34;100320.75;4969797;28;20057;-58
2022/03/05 00:34:40;;;;;;;16.88;8.43;;;;;;;2.10;79.24;100318.97;4970166;28;20030;-58
2022/03/05 00:37:07;;;;;;;17.27;7.95;;;;;;;2.15;79.85;100312.00;4968532;28;20504;-58
2022/03/05 00:39:33;;;;;;;18.10;7.80;;;;;;;2.18;77.95;100315.50;4968364;28;20896;-58
2022/03/05 00:41:58;;;;;;;15.68;7.55;;;;;;;2.18;78.11;100318.13;4969768;28;20061;-58
2022/03/05 00:44:24;;;;;;;17.73;8.20;;;;;;;2.13;77.32;100313.72;4968905;28;20031;-58
2022/03/05 00:46:49;;;;;;;16.13;7.68;;;;;;;2.04;78.46;100317.16;4969276;28;20460;-58
2022/03/05 00:49:15;;;;;;;14.00;7.65;;;;;;;2.05;78.77;100321.56;4969353;28;20101;-58
2022/03/05 00:51:40;;;;;;;18.20;7.30;;;;;;;1.98;78.63;100325.00;4969747;28;20098;-59
2022/03/05 00:54:06;;;;;;;17.73;8.52;;;;;;;1.96;80.32;100321.50;4968854;28;20413;-59
2022/03/05 00:56:31;;;;;;;15.85;6.68;;;;;;;1.84;79.96;100305.69;4982688;28;20117;-59
2022/03/05 00:58:57;;;;;;;16.20;8.00;;;;;;;1.85;79.45;100324.91;4983889;28;20034;-59
2022/03/05 01:01:23;;;;;;;12.75;6.40;;;;;;;1.81;80.07;100323.16;4969315;28;20070;-59
2022/03/05 01:03:48;;;;;;;16.15;7.57;;;;;;;1.66;80.02;100302.94;4969025;28;20105;-59
2022/03/05 01:06:14;;;;;;;13.68;7.05;;;;;;;1.73;80.01;100328.31;4967705;28;20050;-59
2022/03/05 01:08:39;;;;;;;18.15;8.77;;;;;;;1.78;79.26;100331.84;4958425;28;20142;-59
2022/03/05 01:11:05;;;;;;;19.67;7.90;;;;;;;1.70;79.48;100328.28;4968915;28;20033;-59
2022/03/05 01:13:31;;;;;;;17.38;8.45;;;;;;;1.72;78.90;100323.94;4968514;28;20510;-59
2022/03/05 01:15:56;;;;;;;16.02;7.68;;;;;;;1.72;79.20;100323.06;4969487;28;20443;-59
2022/03/05 01:18:22;;;;;;;20.00;8.50;;;;;;;1.72;79.64;100321.31;4969604;28;20385;-59
2022/03/05 01:20:47;;;;;;;14.27;8.05;;;;;;;1.67;79.53;100330.91;4967811;28;20023;-59
2022/03/05 01:23:12;;;;;;;18.15;7.88;;;;;;;1.62;80.19;100324.75;4968491;28;20074;-59
2022/03/05 01:25:38;;;;;;;18.88;8.25;;;;;;;1.59;80.76;100329.06;4968885;28;20386;-59
2022/03/05 01:28:04;;;;;;;16.67;8.63;;;;;;;1.61;80.87;100322.13;4969045;28;20034;-59
2022/03/05 01:30:29;;;;;;;18.08;8.32;;;;;;;1.56;81.03;100319.47;4969057;28;20038;-59
2022/03/05 01:32:54;;;;;;;17.13;7.53;;;;;;;1.56;80.81;100324.69;4969340;28;20047;-59
2022/03/05 01:35:20;;;;;;;13.65;7.30;;;;;;;1.57;79.92;100321.19;4969410;28;20089;-59
2022/03/05 01:37:46;;;;;;;23.13;9.50;;;;;;;1.56;81.10;100319.47;4968206;28;20085;-59
2022/03/05 01:40:11;;;;;;;13.98;7.70;;;;;;;1.48;80.59;100309.78;4968261;28;20015;-59
2022/03/05 01:42:37;;;;;;;17.73;8.23;;;;;;;1.53;80.28;100316.81;4969087;28;20038;-59
2022/03/05 01:45:04;;;;;;;14.85;8.20;;;;;;;1.50;80.96;100324.63;4969338;28;20042;-59
2022/03/05 01:47:29;;;;;;;19.95;8.07;;;;;;;1.46;80.46;100322.88;4968513;28;20537;-59
2022/03/05 01:49:55;;;;;;;15.65;8.95;;;;;;;1.43;80.95;100330.72;4969011;28;20019;-59
2022/03/05 01:52:21;;;;;;;16.63;7.00;;;;;;;1.47;80.41;100323.75;4968981;28;20488;-59
2022/03/05 01:54:47;;;;;;;15.07;8.07;;;;;;;1.49;80.64;100328.13;4969622;28;20031;-59
2022/03/05 01:57:12;;;;;;;16.80;6.63;;;;;;;1.48;80.71;100334.25;4968697;28;20193;-59
2022/03/05 01:59:38;;;;;;;19.05;8.18;;;;;;;1.47;79.83;100329.84;4967767;28;20023;-59
2022/03/05 02:02:04;;;;;;;16.52;8.07;;;;;;;1.46;80.57;100328.09;4969247;28;20038;-59
2022/03/05 02:04:30;;;;;;;16.98;7.90;;;;;;;1.45;80.31;100331.56;4968896;28;20037;-59
2022/03/05 02:06:56;;;;;;;18.05;8.63;;;;;;;1.43;80.15;100333.34;4968301;28;20137;-59
2022/03/05 02:09:21;;;;;;;19.58;8.50;;;;;;;1.43;81.02;100328.09;4968308;28;20147;-59
2022/03/05 02:11:47;;;;;;;18.52;7.38;;;;;;;1.40;79.87;100316.69;4969453;28;20026;-59
2022/03/05 02:14:17;;;;;;;13.27;7.35;;;;;;;1.43;79.93;100322.84;4969347;28;20554;-59
2022/03/05 02:16:44;;;;;;;16.27;7.35;;;;;;;1.39;80.98;100331.53;4969654;28;20031;-59
2022/03/05 02:19:09;;;;;;;19.73;9.82;;;;;;;1.34;80.84;100318.41;4969205;28;20034;-59
2022/03/05 02:21:36;;;;;;;15.52;9.48;;;;;;;1.35;80.53;100324.53;4969460;28;20035;-59
2022/03/05 02:24:02;;;;;;;15.90;7.72;;;;;;;1.35;80.51;100314.03;4969464;28;20126;-59
2022/03/05 02:26:27;;;;;;;21.52;8.15;;;;;;;1.37;81.01;100317.53;4969495;28;20035;-59
2022/03/05 02:28:53;;;;;;;14.43;6.85;;;;;;;1.44;80.07;100318.47;4968182;28;20030;-59
2022/03/05 02:31:19;;;;;;;15.85;7.90;;;;;;;1.36;80.65;100315.78;4969405;28;20820;-59
2022/03/05 02:33:45;;;;;;;16.15;7.32;;;;;;;1.29;81.11;100314.84;4969944;28;20034;-59
2022/03/05 02:36:10;;;;;;;18.23;7.82;;;;;;;1.22;80.78;100307.78;4971925;28;20030;-59
2022/03/05 02:38:36;;;;;;;19.02;8.05;;;;;;;1.21;81.59;100311.28;4972136;28;20514;-59
2022/03/05 02:41:02;;;;;;;15.85;7.40;;;;;;;1.24;81.28;100310.44;4972245;28;20030;-59
2022/03/05 02:43:28;;;;;;;21.13;8.75;;;;;;;1.20;81.62;100309.50;4972742;28;20058;-59
2022/03/05 02:45:54;;;;;;;18.40;7.47;;;;;;;1.12;81.24;100289.38;4972876;28;20030;-59
2022/03/05 02:48:21;;;;;;;14.73;7.60;;;;;;;1.17;81.58;100304.25;4972619;28;20166;-59
2022/03/05 02:50:49;;;;;;;14.57;7.22;;;;;;;1.17;81.86;100308.63;4972210;28;20106;-59
2022/03/05 02:53:14;;;;;;;19.50;7.82;;;;;;;1.14;81.61;100312.09;4972752;28;20394;-59
2022/03/05 02:55:40;;;;;;;16.23;7.43;;;;;;;1.16;82.05;100319.97;4973030;28;20031;-59
2022/03/05 02:58:06;;;;;;;16.40;8.02;;;;;;;1.10;81.61;100317.28;4972430;28;20486;-58
2022/03/05 03:00:32;;;;;;;19.15;7.40;;;;;;;1.06;81.39;100325.97;4971634;28;20022;-58
2022/03/05 03:02:58;;;;;;;12.98;6.78;;;;;;;1.04;82.20;100322.44;4971465;28;20027;-58
2022/03/05 03:05:23;;;;;;;15.60;7.70;;;;;;;0.97;83.00;100320.66;4971567;28;20130;-58
2022/03/05 03:08:23;;;;;;;17.95;7.32;;;;;;;0.90;83.54;100319.72;4971205;28;20035;-58
2022/03/05 03:10:48;;;;;;;12.45;6.63;;;;;;;0.84;83.61;100322.25;4969151;28;20077;-58
2022/03/05 03:13:14;;;;;;;15.85;7.85;;;;;;;0.82;83.71;100320.47;4972189;28;20109;-58
2022/03/05 03:15:39;;;;;;;17.48;7.63;;;;;;;0.79;84.41;100317.84;4972613;28;20034;-58
2022/03/05 03:18:05;;;;;;;17.45;8.18;;;;;;;0.78;84.57;100318.69;4971822;28;20031;-60
2022/03/05 03:20:30;;;;;;;17.67;9.30;;;;;;;0.80;84.92;100323.09;4971568;28;20042;-59
2022/03/05 03:22:56;;;;;;;16.30;7.60;;;;;;;0.79;85.15;100317.84;4972367;28;20366;-59
2022/03/05 03:25:22;;;;;;;15.32;7.53;;;;;;;0.78;85.41;100326.53;4972585;28;20026;-59
2022/03/05 03:27:49;;;;;;;17.50;7.68;;;;;;;0.81;85.59;100324.81;4971262;28;20041;-59
2022/03/05 03:30:15;;;;;;;18.35;8.05;;;;;;;0.80;84.65;100322.19;4971555;28;20029;-59
2022/03/05 03:32:41;;;;;;;18.70;8.30;;;;;;;0.75;84.74;100326.50;4971652;28;20031;-59
2022/03/05 03:35:08;;;;;;;17.77;8.07;;;;;;;0.78;85.38;100323.91;4971943;28;20114;-59
2022/03/05 03:37:34;;;;;;;17.08;8.70;;;;;;;0.77;84.81;100322.16;4970704;28;20040;-59
2022/03/05 03:40:01;;;;;;;16.88;8.02;;;;;;;0.79;85.82;100325.69;4971579;28;20042;-59
2022/03/05 03:42:28;;;;;;;18.08;8.05;;;;;;;0.83;84.79;100322.22;4972017;28;20031;-59
2022/03/05 03:44:54;;;;;;;13.93;7.53;;;;;;;0.74;84.73;100309.91;4970638;28;20039;-59
2022/03/05 03:47:20;;;;;;;19.25;8.82;;;;;;;0.88;84.86;100323.16;4971504;28;20124;-59
2022/03/05 03:49:47;;;;;;;12.20;6.80;;;;;;;0.89;84.89;100323.16;4971096;28;20094;-60
2022/03/05 03:52:15;;;;;;;16.00;8.23;;;;;;;0.89;84.53;100332.78;4971578;28;20122;-59
2022/03/05 03:54:41;;;;;;;15.30;8.40;;;;;;;0.93;84.73;100334.56;4971722;28;20037;-60
2022/03/05 03:57:07;;;;;;;16.30;7.18;;;;;;;0.85;85.03;100331.88;4971715;28;20034;-60
2022/03/05 03:59:32;;;;;;;17.15;8.35;;;;;;;0.83;84.62;100335.31;4970771;28;20031;-60
2022/03/05 04:01:58;;;;;;;23.55;8.38;;;;;;;0.75;84.75;100331.75;4971695;28;20078;-60
2022/03/05 04:04:23;;;;;;;18.17;9.57;;;;;;;0.73;84.90;100336.06;4971155;28;20413;-60
2022/03/05 04:09:33;;;;;;;19.05;8.15;;;;;;;0.74;85.40;100332.63;4970405;28;20042;-60
2022/03/05 04:11:58;;;;;;;21.35;9.40;;;;;;;0.71;85.37;100333.44;4971317;28;20390;-60
2022/03/05 04:14:23;;;;;;;15.20;7.55;;;;;;;0.71;85.78;100340.44;4969958;28;20401;-60
2022/03/05 04:16:49;;;;;;;16.30;8.82;;;;;;;0.70;85.47;100343.91;4970978;28;20042;-60
2022/03/05 04:19:14;;;;;;;17.23;7.95;;;;;;;0.66;85.53;100345.59;4970253;28;20022;-60
2022/03/05 04:21:40;;;;;;;18.45;8.13;;;;;;;0.65;86.04;100345.56;4970342;28;20433;-60
2022/03/05 04:24:05;;;;;;;17.77;9.07;;;;;;;0.63;86.29;100344.66;4969070;28;20019;-60
2022/03/05 04:26:31;;;;;;;20.40;8.15;;;;;;;0.67;86.32;100352.59;4969599;28;20030;-60
2022/03/05 04:28:56;;;;;;;15.23;8.15;;;;;;;0.68;86.23;100354.34;4970316;28;20026;-60
2022/03/05 04:31:21;;;;;;;23.95;8.30;;;;;;;0.67;86.46;100351.72;4971072;28;20042;-60
2022/03/05 04:33:47;;;;;;;15.48;7.72;;;;;;;0.65;86.29;100358.66;4970784;28;20035;-60
2022/03/05 04:36:12;;;;;;;15.38;7.38;;;;;;;0.64;86.21;100359.53;4970439;28;20647;-60
2022/03/05 04:38:40;;;;;;;22.45;9.75;;;;;;;0.63;86.94;100355.13;4970806;28;20456;-60
2022/03/05 04:41:06;;;;;;;19.30;8.25;;;;;;;0.62;86.52;100354.28;4970434;28;20023;-60
2022/03/05 04:43:31;;;;;;;22.30;9.30;;;;;;;0.63;86.71;100361.25;4970300;28;20038;-60
2022/03/05 04:45:57;;;;;;;14.38;7.72;;;;;;;0.56;86.01;100358.56;4970362;28;20514;-60
2022/03/05 04:48:22;;;;;;;13.50;8.27;;;;;;;0.51;86.39;100365.47;4952194;28;20031;-60
2022/03/05 04:50:48;;;;;;;21.42;8.85;;;;;;;0.48;87.25;100361.06;4969950;28;20027;-60
2022/03/05 04:53:14;;;;;;;15.98;7.55;;;;;;;0.50;87.21;100367.19;4970541;28;20023;-60
2022/03/05 04:55:41;;;;;;;17.50;7.80;;;;;;;0.44;87.59;100354.06;4970764;28;20066;-60
2022/03/05 04:58:06;;;;;;;17.30;7.28;;;;;;;0.37;87.47;100341.75;4970399;28;20114;-60
2022/03/05 05:00:31;;;;;;;26.83;8.65;;;;;;;0.49;87.52;100361.94;4970003;28;20474;-60
2022/03/05 05:02:57;;;;;;;16.02;8.88;;;;;;;0.52;87.46;100364.59;4970538;28;20031;-60
2022/03/05 05:05:22;;;;;;;13.93;7.32;;;;;;;0.57;88.05;100358.59;4969680;28;20097;-60
2022/03/05 05:07:48;;;;;;;18.30;8.95;;;;;;;0.60;88.16;100356.00;4969873;28;20117;-60
2022/03/05 05:10:13;;;;;;;26.45;9.38;;;;;;;0.62;87.90;100364.75;4969839;28;20023;-60
2022/03/05 05:12:38;;;;;;;18.00;8.30;;;;;;;0.61;87.49;100367.34;4970401;28;20026;-60
2022/03/05 05:15:04;;;;;;;13.95;8.20;;;;;;;0.62;87.72;100372.59;4970299;28;20109;-60
2022/03/05 05:17:36;;;;;;;16.00;8.27;;;;;;;0.62;87.75;100371.72;4969895;28;20034;-60
2022/03/05 05:20:04;;;;;;;18.10;7.85;;;;;;;0.59;87.01;100375.19;4970078;28;20130;-60
2022/03/05 05:22:31;;;;;;;16.58;7.60;;;;;;;0.61;86.88;100376.06;4969563;28;20046;-60
2022/03/05 05:24:56;;;;;;;18.25;8.10;;;;;;;0.61;87.08;100383.06;4969998;28;20031;-60
2022/03/05 05:27:22;;;;;;;14.05;7.03;;;;;;;0.61;86.58;100377.81;4969604;28;20054;-60
2022/03/05 05:29:47;;;;;;;22.00;8.48;;;;;;;0.65;86.93;100390.06;4969489;28;20541;-60
2022/03/05 05:32:13;;;;;;;18.67;8.48;;;;;;;0.61;86.66;100380.44;4969929;28;20044;-60
2022/03/05 05:34:41;;;;;;;21.23;8.63;;;;;;;0.60;86.95;100386.50;4970449;28;20094;-60
2022/03/05 05:37:07;;;;;;;19.02;8.02;;;;;;;0.57;86.73;100381.25;4969700;28;20509;-60
2022/03/05 05:39:32;;;;;;;16.48;7.60;;;;;;;0.54;86.54;100386.44;4968591;28;20041;-60
2022/03/05 05:41:58;;;;;;;23.75;7.97;;;;;;;0.54;86.87;100387.34;4969847;28;20194;-60
2022/03/05 05:44:23;;;;;;;16.65;8.65;;;;;;;0.52;86.69;100391.66;4969690;28;20030;-60
2022/03/05 05:46:48;;;;;;;16.27;7.68;;;;;;;0.43;86.22;100388.03;4969588;28;20118;-60
2022/03/05 05:49:14;;;;;;;18.40;7.95;;;;;;;0.40;86.78;100390.59;4969399;28;20109;-60
2022/03/05 05:51:39;;;;;;;24.92;9.80;;;;;;;0.34;87.19;100403.59;4970239;28;20118;-60
2022/03/05 05:54:05;;;;;;;19.83;8.52;;;;;;;0.33;87.58;100407.94;4969191;28;20030;-60
2022/03/05 05:56:30;;;;;;;18.70;7.78;;;;;;;0.34;86.99;100403.59;4969263;28;20565;-60
2022/03/05 05:58:56;;;;;;;15.45;8.05;;;;;;;0.35;87.90;100405.34;4969381;28;20383;-60
2022/03/05 06:01:22;;;;;;;17.10;8.45;;;;;;;0.32;87.94;100405.31;4969727;28;20033;-60
2022/03/05 06:03:49;;;;;;;15.45;7.82;;;;;;;0.30;87.92;100413.13;4969647;28;20067;-60
2022/03/05 06:06:14;;;;;;;18.85;7.43;;;;;;;0.29;87.88;100410.50;4968141;28;20062;-60
2022/03/05 06:08:40;;;;;;;15.70;7.65;;;;;;;0.33;88.07;100426.25;4971494;28;20483;-60
2022/03/05 06:11:08;;;;;;;19.40;8.48;;;;;;;0.31;88.81;100424.50;4973055;28;20038;-60
2022/03/05 06:13:34;;;;;;;17.90;7.93;;;;;;;0.31;88.69;100427.09;4973544;28;20120;-60
2022/03/05 06:15:59;;;;;;;18.88;8.20;;;;;;;0.29;88.10;100420.97;4973147;28;20034;-60
2022/03/05 06:18:25;;;;;;;13.43;7.18;;;;;;;0.31;89.08;100421.88;4973119;28;20065;-60
2022/03/05 06:20:51;;;;;;;15.52;7.10;;;;;;;0.57;90.68;100423.13;4973267;28;20485;-60
2022/03/05 06:23:20;;;;;;;16.75;8.05;;;;;;;0.90;91.41;100416.59;4973174;28;20038;-60
2022/03/05 06:25:45;;;;;;;21.60;8.50;;;;;;;1.17;88.73;100418.66;4973373;28;20729;-60
2022/03/05 06:28:11;;;;;;;15.05;8.73;;;;;;;1.27;85.84;100417.88;4973210;28;20081;-60
2022/03/05 06:30:37;;;;;;;17.50;8.48;;;;;;;1.21;84.72;100420.44;4972670;28;20066;-60
2022/03/05 06:33:03;;;;;;;25.88;8.63;;;;;;;1.17;83.58;100424.75;4972119;28;20033;-60
2022/03/05 06:35:28;;;;;;;17.17;7.90;;;;;;;1.15;84.56;100428.22;4972604;28;20034;-60
2022/03/05 06:37:54;;;;;;;15.75;7.00;;;;;;;1.16;84.54;100428.25;4972621;28;20393;-60
2022/03/05 06:40:20;;;;;;;18.65;8.25;;;;;;;1.19;85.04;100427.38;4972570;28;20034;-60
2022/03/05 06:42:45;;;;;;;19.45;8.52;;;;;;;1.13;84.92;100404.63;4972423;28;20035;-60
2022/03/05 06:45:14;;;;;;;17.08;7.72;;;;;;;1.29;85.41;100424.91;4972356;28;20073;-60
2022/03/05 06:47:39;;;;;;;19.85;9.52;;;;;;;1.06;85.65;100373.09;4973070;28;20066;-60
2022/03/05 06:50:07;;;;;;;24.20;10.30;;;;;;;1.52;84.89;100430.38;4972346;28;20062;-60
2022/03/05 06:52:33;;;;;;;22.10;10.35;;;;;;;2.13;88.63;100432.66;4972701;28;20039;-60
2022/03/05 06:54:59;;;;;;;20.35;9.90;;;;;;;2.69;83.36;100418.16;4972797;28;20041;-60
2022/03/05 06:57:25;;;;;;;20.52;8.95;;;;;;;2.92;78.91;100431.41;4972485;28;20497;-60
2022/03/05 06:59:50;;;;;;;17.90;8.27;;;;;;;2.78;77.57;100443.59;4972249;28;20548;-60
2022/03/05 07:02:16;;;;;;;18.25;8.05;;;;;;;2.70;77.62;100435.66;4972515;28;20030;-60
2022/03/05 07:04:41;;;;;;;17.30;8.48;;;;;;;2.55;77.58;100443.44;4972434;28;20053;-60
2022/03/05 07:07:07;;;;;;;15.75;8.10;;;;;;;2.55;78.07;100451.34;4972096;28;20450;-60
2022/03/05 07:09:32;;;;;;;16.55;7.82;;;;;;;2.68;78.72;100453.16;4971525;28;20186;-58
2022/03/05 07:11:58;;;;;;;19.65;8.13;;;;;;;4.02;83.82;100444.81;4970641;28;20042;-58
2022/03/05 07:14:24;;;;;;;18.90;8.05;;;;;;;6.84;70.70;100443.41;4971030;28;20042;-58
2022/03/05 07:16:49;;;;;;;13.15;7.38;;;;;;;9.30;55.74;100441.25;4971933;28;20092;-58
2022/03/05 07:19:15;;;;;;;12.98;6.82;;;;;;;11.22;48.09;100440.06;4970604;28;20023;-57
2022/03/05 07:21:40;;;;;;;14.18;6.68;;;;;;;12.13;43.77;100439.03;4972201;28;20046;-58
2022/03/05 07:24:08;;;;;;;14.23;7.40;;;;;;;13.13;42.41;100429.34;4971786;28;20023;-58
2022/03/05 07:26:34;;;;;;;15.40;7.47;;;;;;;14.25;39.92;100435.69;4970479;28;20045;-58
2022/03/05 07:28:59;;;;;;;15.05;7.35;;;;;;;14.78;37.29;100434.31;4971185;28;20030;-58
2022/03/05 07:31:24;;;;;;;12.95;7.45;;;;;;;15.34;37.21;100443.41;4972139;28;20327;-58
2022/03/05 07:33:50;;;;;;;15.25;7.53;;;;;;;16.05;36.60;100444.56;4970953;28;20065;-59
2022/03/05 07:36:16;;;;;;;14.40;7.63;;;;;;;16.17;35.44;100443.97;4971275;28;20054;-59
2022/03/05 07:38:44;;;;;;;15.60;6.65;;;;;;;16.36;34.97;100444.84;4971857;28;20038;-59
2022/03/05 07:41:10;;;;;;;14.90;7.30;;;;;;;16.59;34.56;100447.28;4971569;28;20046;-59
2022/03/05 07:43:35;;;;;;;50.25;10.40;;;;;;;16.77;34.11;100449.06;4970851;28;20039;-59
2022/03/05 07:46:01;;;;;;;13.70;6.72;;;;;;;16.84;33.03;100447.75;4970816;28;20109;-59
2022/03/05 07:48:26;;;;;;;17.08;6.78;;;;;;;17.11;33.26;100451.72;4971338;28;20038;-59
2022/03/05 07:50:52;;;;;;;13.00;7.30;;;;;;;17.83;31.71;100458.56;4971532;28;20455;-59
2022/03/05 07:53:18;;;;;;;12.75;6.28;;;;;;;17.25;32.57;100459.91;4971089;28;20498;-59
2022/03/05 07:55:44;;;;;;;10.40;6.70;;;;;;;17.31;31.82;100470.38;4971450;28;20074;-59
2022/03/05 07:58:09;;;;;;;12.85;6.07;;;;;;;17.32;33.05;100469.41;4971486;28;20414;-59
2022/03/05 08:00:35;;;;;;;14.75;7.18;;;;;;;17.90;32.17;100481.50;4971175;28;20046;-59
2022/03/05 08:03:00;;;;;;;12.80;6.55;;;;;;;17.91;31.27;100479.66;4970783;28;20034;-59
2022/03/05 08:05:26;;;;;;;13.77;7.13;;;;;;;17.87;31.43;100481.69;4971048;28;20118;-59
2022/03/05 08:07:54;;;;;;;9.95;5.47;;;;;;;17.68;30.99;100475.53;4969834;28;20035;-58
2022/03/05 08:10:20;;;;;;;12.48;7.05;;;;;;;17.73;31.15;100473.47;4970785;28;20022;-59
2022/03/05 08:12:45;;;;;;;10.80;6.25;;;;;;;17.42;31.33;100478.72;4970840;28;20057;-59
2022/03/05 08:15:11;;;;;;;11.98;6.50;;;;;;;17.31;31.49;100465.00;4971271;28;20463;-58
2022/03/05 08:17:48;;;;;;;12.05;6.85;;;;;;;17.89;31.57;100478.91;4970931;28;20661;-59
2022/03/05 08:20:13;;;;;;;14.27;6.40;;;;;;;18.13;30.46;100470.31;4970803;28;20038;-59
2022/03/05 08:22:39;;;;;;;11.63;6.82;;;;;;;18.38;30.92;100473.34;4970920;28;20087;-59
2022/03/05 08:25:05;;;;;;;12.63;6.30;;;;;;;18.75;30.80;100471.25;4971432;28;20366;-59
2022/03/05 08:27:30;;;;;;;13.30;6.22;;;;;;;18.87;30.04;100466.00;4970631;28;20046;-59
2022/03/05 08:29:55;;;;;;;10.80;5.53;;;;;;;18.95;29.98;100461.03;4970396;28;20030;-59
2022/03/05 08:32:21;;;;;;;11.20;6.03;;;;;;;18.76;30.22;100463.09;4970140;28;20110;-59
2022/03/05 08:34:46;;;;;;;14.75;6.72;;;;;;;19.00;29.68;100460.75;4970665;28;20026;-59
2022/03/05 08:37:12;;;;;;;16.02;6.75;;;;;;;18.68;30.48;100456.41;4967865;28;20023;-59
2022/03/05 08:39:37;;;;;;;13.55;6.55;;;;;;;18.50;31.04;100465.56;4969980;28;20027;-59
2022/03/05 08:42:03;;;;;;;13.77;6.80;;;;;;;18.50;30.99;100450.25;4969600;28;20035;-59
2022/03/05 08:44:28;;;;;;;12.77;6.47;;;;;;;18.05;31.17;100467.19;4970514;28;20054;-59
2022/03/05 08:46:54;;;;;;;13.73;6.30;;;;;;;17.79;30.98;100472.28;4970554;28;20042;-59
2022/03/05 08:49:20;;;;;;;15.18;6.93;;;;;;;17.42;31.43;100454.53;4969786;28;20026;-59
2022/03/05 08:51:46;;;;;;;14.00;6.53;;;;;;;16.96;32.57;100441.78;4969946;28;20097;-59
2022/03/05 08:54:11;;;;;;;12.55;6.43;;;;;;;16.72;32.32;100454.63;4970727;28;20031;-59
2022/03/05 08:56:37;;;;;;;15.45;7.05;;;;;;;16.76;31.91;100455.34;4970143;28;20065;-59
2022/03/05 08:59:02;;;;;;;15.45;6.43;;;;;;;16.61;32.93;100448.06;4970072;28;20035;-59
2022/03/05 09:01:27;;;;;;;14.43;6.55;;;;;;;16.67;32.95;100451.31;4970187;28;20026;-59
2022/03/05 09:03:53;;;;;;;12.73;6.07;;;;;;;16.45;31.63;100445.28;4965896;28;20041;-59
2022/03/05 09:06:19;;;;;;;11.85;5.80;;;;;;;16.25;33.79;100457.91;4967973;28;20094;-58
2022/03/05 09:08:44;;;;;;;13.27;6.80;;;;;;;16.25;34.33;100444.47;4969601;28;20445;-60
2022/03/05 09:11:09;;;;;;;17.50;7.15;;;;;;;16.22;34.34;100447.31;4969911;28;20023;-59
2022/03/05 09:13:35;;;;;;;12.93;6.10;;;;;;;16.32;34.13;100437.88;4967511;28;20458;-59
2022/03/05 09:16:00;;;;;;;10.18;5.93;;;;;;;16.34;33.14;100441.34;4969071;28;20677;-59
2022/03/05 09:18:27;;;;;;;12.95;6.30;;;;;;;15.99;32.13;100442.19;4965961;28;20034;-59
2022/03/05 09:20:52;;;;;;;11.48;6.07;;;;;;;16.22;33.59;100441.94;4968851;28;20034;-59
2022/03/05 09:23:17;;;;;;;13.98;6.10;;;;;;;16.13;32.68;100431.69;4968902;28;20478;-59
2022/03/05 09:25:44;;;;;;;13.70;6.55;;;;;;;16.02;33.59;100431.31;4968464;28;20054;-59
2022/03/05 09:28:09;;;;;;;13.77;6.10;;;;;;;16.02;34.62;100424.13;4968856;28;20101;-59
2022/03/05 09:30:35;;;;;;;12.63;6.15;;;;;;;16.18;33.21;100437.66;4967284;28;20411;-59
2022/03/05 09:33:01;;;;;;;10.10;5.40;;;;;;;15.48;34.01;100430.28;4968917;28;20041;-59
2022/03/05 09:35:26;;;;;;;11.73;5.70;;;;;;;15.72;33.63;100425.59;4969427;28;20034;-59
2022/03/05 09:37:51;;;;;;;11.90;5.65;;;;;;;15.92;32.12;100424.63;4968670;28;20103;-59
2022/03/05 09:40:17;;;;;;;12.38;5.75;;;;;;;16.24;32.99;100422.16;4967200;28;20470;-59
2022/03/05 09:42:44;;;;;;;13.32;6.13;;;;;;;16.75;33.39;100426.75;4960403;28;20042;-59
2022/03/05 09:45:11;;;;;;;11.82;6.38;;;;;;;17.09;31.26;100430.31;4968773;28;20023;-59
2022/03/05 09:47:38;;;;;;;10.13;5.30;;;;;;;17.16;31.55;100428.16;4966819;28;20137;-59
2022/03/05 09:50:06;;;;;;;9.63;5.45;;;;;;;17.40;31.92;100426.84;4968115;28;20031;-59
2022/03/05 09:52:32;;;;;;;11.43;5.47;;;;;;;17.33;30.66;100425.41;4968726;28;20039;-59
2022/03/05 09:54:57;;;;;;;10.77;5.82;;;;;;;17.41;30.24;100419.66;4968672;28;20034;-59
2022/03/05 09:57:23;;;;;;;9.95;4.93;;;;;;;17.31;30.27;100421.97;4968996;28;20043;-59
2022/03/05 09:59:48;;;;;;;11.70;5.32;;;;;;;17.33;31.08;100411.97;4954134;28;20019;-59
2022/03/05 10:02:14;;;;;;;10.07;4.88;;;;;;;17.90;31.38;100418.72;4947884;29;20035;-59
2022/03/05 10:04:41;;;;;;;12.20;5.90;;;;;;;17.84;31.82;100417.22;4950249;29;20019;-59
2022/03/05 10:07:15;;;;;;;13.30;5.22;;;;;;;17.90;31.40;100410.66;4967558;28;20110;-59
2022/03/05 10:09:43;;;;;;;10.38;5.32;;;;;;;17.56;29.58;100411.63;4968396;28;20041;-59
2022/03/05 10:12:27;;;;;;;13.57;6.13;;;;;;;17.97;30.49;100402.13;4962731;28;20039;-59
2022/03/05 10:15:21;;;;;;;14.45;6.45;;;;;;;18.08;29.56;100410.47;4970078;28;20470;-59
2022/03/05 10:17:50;;;;;;;14.02;6.15;;;;;;;18.22;29.96;100402.47;4963399;28;20042;-60
2022/03/05 10:20:17;;;;;;;13.48;6.45;;;;;;;18.17;31.14;100406.41;4968211;28;20031;-59
2022/03/05 10:23:04;;;;;;;15.43;5.57;;;;;;;17.96;28.93;100410.28;4968498;28;20038;-59
2022/03/05 10:25:49;;;;;;;9.95;5.20;;;;;;;18.53;29.60;100403.41;4968285;28;20106;-59
2022/03/05 10:28:17;;;;;;;11.55;5.47;;;;;;;18.46;29.83;100400.22;4967849;28;20766;-59
2022/03/05 10:30:44;;;;;;;10.07;5.35;;;;;;;18.86;29.88;100399.56;4968089;28;20015;-59
2022/03/05 10:33:45;;;;;;;10.70;6.07;;;;;;;18.90;29.20;100394.84;4968396;28;20062;-59
2022/03/05 10:36:24;;;;;;;9.52;5.00;;;;;;;18.74;27.95;100394.94;4981887;28;20101;-59
2022/03/05 10:38:54;;;;;;;12.35;6.93;;;;;;;18.75;28.54;100391.25;4967460;28;20033;-59
2022/03/05 10:41:34;;;;;;;13.70;6.40;;;;;;;18.92;28.63;100395.63;4968198;28;20039;-59
2022/03/05 10:44:11;;;;;;;10.88;5.13;;;;;;;18.74;28.11;100394.06;4967831;28;20030;-59
2022/03/05 10:47:03;;;;;;;11.15;5.90;;;;;;;19.10;27.99;100397.22;4968101;28;20579;-59
2022/03/05 10:49:37;;;;;;;13.00;5.55;;;;;;;19.44;27.73;100389.66;4965206;28;20134;-59
2022/03/05 10:52:02;;;;;;;13.38;5.88;;;;;;;19.07;27.75;100389.31;4967158;28;20048;-59
2022/03/05 10:54:38;;;;;;;10.95;5.80;;;;;;;19.35;26.90;100383.97;4969063;28;20030;-59
2022/03/05 10:57:23;;;;;;;15.43;5.65;;;;;;;19.20;27.62;100382.22;4971672;28;20053;-59
2022/03/05 10:59:53;;;;;;;11.65;5.43;;;;;;;19.20;26.79;100384.91;4971938;28;20364;-59
2022/03/05 11:02:21;;;;;;;11.80;5.45;;;;;;;19.08;27.59;100388.34;4971122;28;20026;-60
2022/03/05 11:04:48;;;;;;;10.23;5.07;;;;;;;19.28;26.68;100369.09;4970263;28;20038;-60
2022/03/05 11:07:16;;;;;;;9.15;4.47;;;;;;;19.18;25.56;100373.34;4970991;28;20046;-60
2022/03/05 11:09:42;;;;;;;9.15;4.28;;;;;;;19.24;27.02;100367.56;4970142;28;20106;-61
2022/03/05 11:12:12;;;;;;;9.65;4.47;;;;;;;19.14;25.50;100363.72;4970452;28;20446;-61
2022/03/05 11:14:39;;;;;;;10.40;4.68;;;;;;;19.28;25.47;100359.19;4970646;28;20018;-60
2022/03/05 11:17:05;;;;;;;10.95;4.78;;;;;;;19.35;26.03;100354.31;4970442;28;20038;-60
2022/03/05 11:19:31;;;;;;;7.53;3.67;;;;;;;19.47;25.17;100348.16;4969907;28;20470;-60
2022/03/05 11:21:57;;;;;;;7.00;4.00;;;;;;;19.36;25.69;100356.91;4970828;28;20058;-60